createdAt,value
2017-11-30T00:00:06.829Z,-3.41
2017-11-30T00:01:16.834Z,-3.37
2017-11-30T00:02:26.583Z,-3.38
2017-11-30T00:03:36.593Z,-3.36
2017-11-30T00:04:46.327Z,-3.36
2017-11-30T00:05:56.354Z,-3.37
2017-11-30T00:07:06.361Z,-3.43
2017-11-30T00:08:16.365Z,-3.41
2017-11-30T00:09:26.365Z,-3.41
2017-11-30T00:10:36.371Z,-3.41
2017-11-30T00:11:46.374Z,-3.38
2017-11-30T00:12:56.380Z,-3.4
2017-11-30T00:14:06.380Z,-3.38
2017-11-30T00:15:16.389Z,-3.4
2017-11-30T00:16:26.395Z,-3.4
2017-11-30T00:17:36.138Z,-3.29
2017-11-30T00:18:45.878Z,-3.38
2017-11-30T00:19:55.898Z,-3.41
2017-11-30T00:21:05.898Z,-3.33
2017-11-30T00:22:15.910Z,-3.4
2017-11-30T00:23:25.910Z,-3.37
2017-11-30T00:24:35.934Z,-3.43
2017-11-30T00:25:45.405Z,-3.36
2017-11-30T00:26:55.403Z,-3.38
2017-11-30T00:28:05.413Z,-3.36
2017-11-30T00:29:15.156Z,-3.43
2017-11-30T00:30:25.161Z,-3.38
2017-11-30T00:31:35.169Z,-3.26
2017-11-30T00:32:44.917Z,-3.36
2017-11-30T00:33:54.936Z,-3.36
2017-11-30T00:35:04.669Z,-3.38
2017-11-30T00:36:14.673Z,-3.3
2017-11-30T00:37:24.671Z,-3.32
2017-11-30T00:38:34.680Z,-3.32
2017-11-30T00:39:44.697Z,-3.26
2017-11-30T00:40:54.696Z,-3.41
2017-11-30T00:42:04.433Z,-3.2
2017-11-30T00:43:14.466Z,-3.27
2017-11-30T00:44:24.238Z,-3.29
2017-11-30T00:45:33.974Z,-3.27
2017-11-30T00:46:43.981Z,-3.3
2017-11-30T00:47:53.984Z,-3.15
2017-11-30T00:49:03.995Z,-3.27
2017-11-30T00:50:13.996Z,-3.25
2017-11-30T00:51:24.001Z,-3.23
2017-11-30T00:52:34.007Z,-3.32
2017-11-30T00:53:44.060Z,-3.3
2017-11-30T00:54:54.097Z,-3.23
2017-11-30T00:56:04.137Z,-3.3
2017-11-30T00:57:14.163Z,-3.26
2017-11-30T00:58:24.188Z,-3.22
2017-11-30T00:59:34.236Z,-3.22
2017-11-30T01:00:44.259Z,-3.26
2017-11-30T01:01:54.253Z,-3.23
2017-11-30T01:03:04.250Z,-3.27
2017-11-30T01:04:14.260Z,-3.3
2017-11-30T01:05:24.303Z,-3.12
2017-11-30T01:06:34.322Z,-3.2
2017-11-30T01:07:44.053Z,-3.14
2017-11-30T01:08:54.064Z,-3.19
2017-11-30T01:10:04.091Z,-3.19
2017-11-30T01:11:14.089Z,-3.17
2017-11-30T01:12:24.099Z,-3.14
2017-11-30T01:13:33.854Z,-3.23
2017-11-30T01:14:43.864Z,-3.2
2017-11-30T01:15:53.872Z,-3.15
2017-11-30T01:17:03.886Z,-3.09
2017-11-30T01:18:13.617Z,-3.23
2017-11-30T01:19:23.356Z,-3.07
2017-11-30T01:20:33.383Z,-3.19
2017-11-30T01:21:43.137Z,-3.25
2017-11-30T01:22:52.873Z,-3.05
2017-11-30T01:24:02.329Z,-3.08
2017-11-30T01:25:12.327Z,-3.12
2017-11-30T01:26:22.341Z,-3.17
2017-11-30T01:27:32.345Z,-3.14
2017-11-30T01:28:42.365Z,-3.2
2017-11-30T01:29:52.372Z,-3.23
2017-11-30T01:31:02.389Z,-3.17
2017-11-30T01:32:12.399Z,-3.07
2017-11-30T01:33:22.138Z,-3.17
2017-11-30T01:34:32.145Z,-3.05
2017-11-30T01:35:42.155Z,-3.14
2017-11-30T01:36:51.888Z,-2.99
2017-11-30T01:38:04.756Z,-3.01
2017-11-30T01:39:14.771Z,-3.07
2017-11-30T01:40:24.772Z,-2.94
2017-11-30T01:41:34.785Z,-2.99
2017-11-30T01:42:44.792Z,-2.84
2017-11-30T01:43:54.803Z,-2.75
2017-11-30T01:45:04.819Z,-2.72
2017-11-30T01:46:14.822Z,-2.72
2017-11-30T01:47:24.822Z,-2.69
2017-11-30T01:48:34.827Z,-2.66
2017-11-30T01:49:44.568Z,-2.65
2017-11-30T01:50:54.577Z,-2.58
2017-11-30T01:52:04.316Z,-2.54
2017-11-30T01:53:14.050Z,-2.52
2017-11-30T01:54:24.083Z,-2.48
2017-11-30T01:55:33.810Z,-2.5
2017-11-30T01:56:43.816Z,-2.45
2017-11-30T01:57:53.822Z,-2.48
2017-11-30T01:59:03.829Z,-2.5
2017-11-30T02:00:13.869Z,-2.42
2017-11-30T02:01:23.873Z,-2.37
2017-11-30T02:02:33.615Z,-2.42
2017-11-30T02:03:43.617Z,-2.4
2017-11-30T02:04:53.627Z,-2.45
2017-11-30T02:06:03.666Z,-2.57
2017-11-30T02:07:13.402Z,-2.5
2017-11-30T02:08:23.402Z,-2.55
2017-11-30T02:09:33.414Z,-2.62
2017-11-30T02:10:43.423Z,-2.63
2017-11-30T02:11:53.434Z,-2.58
2017-11-30T02:13:03.166Z,-2.69
2017-11-30T02:14:13.191Z,-2.66
2017-11-30T02:15:23.214Z,-2.8
2017-11-30T02:16:33.223Z,-2.86
2017-11-30T02:17:43.223Z,-2.89
2017-11-30T02:18:53.240Z,-2.83
2017-11-30T02:20:03.273Z,-2.93
2017-11-30T02:21:13.286Z,-2.86
2017-11-30T02:22:23.303Z,-2.87
2017-11-30T02:23:33.318Z,-2.91
2017-11-30T02:24:43.321Z,-2.9
2017-11-30T02:25:53.332Z,-2.93
2017-11-30T02:27:03.339Z,-3.02
2017-11-30T02:28:13.346Z,-2.96
2017-11-30T02:29:23.357Z,-2.99
2017-11-30T02:30:33.370Z,-2.98
2017-11-30T02:31:43.387Z,-3.05
2017-11-30T02:32:53.402Z,-2.98
2017-11-30T02:34:03.449Z,-3.05
2017-11-30T02:35:13.466Z,-2.94
2017-11-30T02:36:23.486Z,-2.98
2017-11-30T02:37:33.230Z,-2.99
2017-11-30T02:38:43.292Z,-2.98
2017-11-30T02:39:53.305Z,-2.96
2017-11-30T02:41:03.319Z,-3.01
2017-11-30T02:42:13.320Z,-3.05
2017-11-30T02:43:23.396Z,-2.98
2017-11-30T02:44:32.865Z,-2.99
2017-11-30T02:45:42.883Z,-3.02
2017-11-30T02:46:52.908Z,-2.99
2017-11-30T02:48:02.938Z,-2.96
2017-11-30T02:49:12.404Z,-2.98
2017-11-30T02:50:22.409Z,-2.96
2017-11-30T02:51:32.429Z,-2.91
2017-11-30T02:52:42.467Z,-2.83
2017-11-30T02:53:52.488Z,-2.78
2017-11-30T02:55:02.503Z,-2.83
2017-11-30T02:56:12.517Z,-2.7
2017-11-30T02:57:22.528Z,-2.84
2017-11-30T02:58:32.543Z,-2.76
2017-11-30T02:59:42.542Z,-2.83
2017-11-30T03:00:52.565Z,-2.87
2017-11-30T03:02:02.570Z,-2.9
2017-11-30T03:03:12.582Z,-2.91
2017-11-30T03:04:22.580Z,-2.94
2017-11-30T03:05:32.874Z,-2.99
2017-11-30T03:06:42.889Z,-3.01
2017-11-30T03:07:52.885Z,-3.01
2017-11-30T03:09:02.885Z,-3.01
2017-11-30T03:10:12.896Z,-2.99
2017-11-30T03:11:22.635Z,-3.01
2017-11-30T03:12:32.632Z,-2.91
2017-11-30T03:13:42.093Z,-2.94
2017-11-30T03:14:52.094Z,-2.98
2017-11-30T03:16:02.094Z,-2.91
2017-11-30T03:17:12.139Z,-3.01
2017-11-30T03:18:22.142Z,-2.99
2017-11-30T03:19:32.230Z,-3.01
2017-11-30T03:20:41.963Z,-2.94
2017-11-30T03:21:51.423Z,-2.96
2017-11-30T03:23:01.425Z,-2.98
2017-11-30T03:24:11.432Z,-2.94
2017-11-30T03:25:21.485Z,-2.99
2017-11-30T03:26:31.486Z,-2.99
2017-11-30T03:27:41.485Z,-3.01
2017-11-30T03:28:51.242Z,-2.99
2017-11-30T03:30:01.252Z,-2.96
2017-11-30T03:31:10.724Z,-2.99
2017-11-30T03:32:20.745Z,-3.01
2017-11-30T03:33:30.746Z,-3.01
2017-11-30T03:34:41.904Z,-3.05
2017-11-30T03:35:51.909Z,-3.01
2017-11-30T03:37:01.641Z,-3.04
2017-11-30T03:38:11.652Z,-2.98
2017-11-30T03:39:21.650Z,-3.04
2017-11-30T03:40:31.385Z,-2.99
2017-11-30T03:41:41.125Z,-2.98
2017-11-30T03:42:50.860Z,-3.07
2017-11-30T03:44:00.867Z,-3.05
2017-11-30T03:45:10.328Z,-3.02
2017-11-30T03:46:20.330Z,-2.99
2017-11-30T03:47:30.357Z,-2.98
2017-11-30T03:48:40.365Z,-2.98
2017-11-30T03:49:50.370Z,-2.98
2017-11-30T03:51:00.096Z,-2.98
2017-11-30T03:52:10.096Z,-2.94
2017-11-30T03:53:20.098Z,-2.99
2017-11-30T03:54:29.837Z,-2.94
2017-11-30T03:55:39.858Z,-2.96
2017-11-30T03:56:49.874Z,-2.86
2017-11-30T03:57:59.881Z,-2.87
2017-11-30T03:59:09.617Z,-2.91
2017-11-30T04:03:27.202Z,-2.91
2017-11-30T04:04:37.205Z,-2.89
2017-11-30T04:05:47.211Z,-2.81
2017-11-30T04:06:56.939Z,-2.83
2017-11-30T04:08:06.959Z,-2.75
2017-11-30T04:09:16.698Z,-2.81
2017-11-30T04:10:26.707Z,-2.83
2017-11-30T04:11:36.709Z,-2.86
2017-11-30T04:12:46.184Z,-2.8
2017-11-30T04:13:56.208Z,-2.78
2017-11-30T04:15:05.965Z,-2.72
2017-11-30T04:16:15.986Z,-2.8
2017-11-30T04:17:25.987Z,-2.78
2017-11-30T04:18:35.991Z,-2.7
2017-11-30T04:19:45.992Z,-2.72
2017-11-30T04:20:55.741Z,-2.69
2017-11-30T04:22:05.771Z,-2.66
2017-11-30T04:23:15.773Z,-2.63
2017-11-30T04:24:25.784Z,-2.69
2017-11-30T04:25:35.799Z,-2.68
2017-11-30T04:26:45.813Z,-2.61
2017-11-30T04:27:55.835Z,-2.57
2017-11-30T04:29:05.851Z,-2.54
2017-11-30T04:30:15.862Z,-2.55
2017-11-30T04:31:25.875Z,-2.45
2017-11-30T04:32:35.616Z,-2.45
2017-11-30T04:33:45.653Z,-2.36
2017-11-30T04:34:55.699Z,-2.36
2017-11-30T04:36:05.724Z,-2.32
2017-11-30T04:37:15.744Z,-2.29
2017-11-30T04:38:25.744Z,-2.29
2017-11-30T04:39:35.751Z,-2.18
2017-11-30T04:40:45.755Z,-2.2
2017-11-30T04:41:55.492Z,-2.17
2017-11-30T04:43:05.238Z,-2.04
2017-11-30T04:44:15.249Z,-2.05
2017-11-30T04:45:25.261Z,-2.08
2017-11-30T04:46:35.269Z,-2.08
2017-11-30T04:47:45.005Z,-1.96
2017-11-30T04:48:55.014Z,-1.89
2017-11-30T04:50:05.048Z,-1.92
2017-11-30T04:51:15.100Z,-1.76
2017-11-30T04:52:25.128Z,-1.86
2017-11-30T04:53:35.136Z,-1.86
2017-11-30T04:54:45.144Z,-1.79
2017-11-30T04:55:54.876Z,-1.76
2017-11-30T04:57:04.877Z,-1.78
2017-11-30T04:58:14.899Z,-1.68
2017-11-30T04:59:24.917Z,-1.63
2017-11-30T05:00:34.919Z,-1.72
2017-11-30T05:01:44.923Z,-1.78
2017-11-30T05:02:54.948Z,-1.76
2017-11-30T05:04:04.976Z,-1.82
2017-11-30T05:05:14.768Z,-1.93
2017-11-30T05:06:24.775Z,-1.78
2017-11-30T05:07:34.513Z,-1.78
2017-11-30T05:08:44.545Z,-1.78
2017-11-30T05:09:54.542Z,-1.75
2017-11-30T05:11:04.289Z,-1.72
2017-11-30T05:12:14.031Z,-1.71
2017-11-30T05:13:24.029Z,-1.66
2017-11-30T05:14:34.037Z,-1.64
2017-11-30T05:15:43.801Z,-1.57
2017-11-30T05:16:53.814Z,-1.56
2017-11-30T05:18:03.818Z,-1.54
2017-11-30T05:19:13.824Z,-1.45
2017-11-30T05:20:23.833Z,-1.46
2017-11-30T05:21:33.832Z,-1.43
2017-11-30T05:22:43.845Z,-1.43
2017-11-30T05:23:53.869Z,-1.43
2017-11-30T05:25:05.884Z,-1.42
2017-11-30T05:26:15.892Z,-1.39
2017-11-30T05:27:25.898Z,-1.42
2017-11-30T05:28:35.652Z,-1.51
2017-11-30T05:29:45.398Z,-1.64
2017-11-30T05:30:55.413Z,-1.58
2017-11-30T05:32:05.424Z,-1.66
2017-11-30T05:33:15.427Z,-1.76
2017-11-30T05:34:25.498Z,-1.78
2017-11-30T05:35:35.233Z,-1.74
2017-11-30T05:36:44.969Z,-1.87
2017-11-30T05:37:55.021Z,-1.84
2017-11-30T05:39:04.765Z,-1.92
2017-11-30T05:40:14.833Z,-1.96
2017-11-30T05:41:24.565Z,-2.02
2017-11-30T05:42:34.570Z,-2
2017-11-30T05:43:44.584Z,-2.02
2017-11-30T05:44:54.592Z,-1.99
2017-11-30T05:46:04.593Z,-2.1
2017-11-30T05:47:14.595Z,-2.15
2017-11-30T05:48:24.612Z,-2.18
2017-11-30T05:49:34.352Z,-2.18
2017-11-30T05:50:44.083Z,-2.15
2017-11-30T05:51:54.091Z,-2.2
2017-11-30T05:53:04.094Z,-2.2
2017-11-30T05:54:13.838Z,-2.22
2017-11-30T05:55:23.605Z,-2.2
2017-11-30T05:56:33.341Z,-2.18
2017-11-30T05:57:43.368Z,-2.29
2017-11-30T05:58:53.383Z,-2.33
2017-11-30T06:00:03.398Z,-2.29
2017-11-30T06:01:13.441Z,-2.36
2017-11-30T06:02:23.439Z,-2.34
2017-11-30T06:03:33.464Z,-2.29
2017-11-30T06:04:43.471Z,-2.32
2017-11-30T06:05:53.212Z,-2.36
2017-11-30T06:07:03.227Z,-2.28
2017-11-30T06:08:13.241Z,-2.36
2017-11-30T06:09:23.253Z,-2.39
2017-11-30T06:10:32.987Z,-2.37
2017-11-30T06:11:43.033Z,-2.36
2017-11-30T06:12:53.034Z,-2.34
2017-11-30T06:14:03.099Z,-2.39
2017-11-30T06:15:13.101Z,-2.33
2017-11-30T06:16:23.164Z,-2.32
2017-11-30T06:17:33.173Z,-2.33
2017-11-30T06:18:43.172Z,-2.37
2017-11-30T06:19:53.198Z,-2.28
2017-11-30T06:21:03.207Z,-2.17
2017-11-30T06:22:12.950Z,-2.18
2017-11-30T06:23:22.966Z,-2.2
2017-11-30T06:24:32.971Z,-2.18
2017-11-30T06:25:42.716Z,-2.1
2017-11-30T06:26:52.727Z,-2.02
2017-11-30T06:28:02.735Z,-1.9
2017-11-30T06:29:12.754Z,-1.9
2017-11-30T06:30:22.766Z,-1.87
2017-11-30T06:31:32.787Z,-1.87
2017-11-30T06:32:42.825Z,-1.79
2017-11-30T06:33:52.841Z,-1.78
2017-11-30T06:35:02.951Z,-1.68
2017-11-30T06:36:12.694Z,-1.71
2017-11-30T06:37:22.704Z,-1.76
2017-11-30T06:38:32.708Z,-1.78
2017-11-30T06:39:42.723Z,-1.69
2017-11-30T06:40:52.758Z,-1.72
2017-11-30T06:42:02.765Z,-1.75
2017-11-30T06:43:12.784Z,-1.71
2017-11-30T06:44:22.819Z,-1.76
2017-11-30T06:45:32.838Z,-1.72
2017-11-30T06:46:42.838Z,-1.74
2017-11-30T06:47:52.844Z,-1.64
2017-11-30T06:49:02.855Z,-1.6
2017-11-30T06:50:12.867Z,-1.48
2017-11-30T06:51:22.895Z,-1.43
2017-11-30T06:52:32.911Z,-1.42
2017-11-30T06:53:42.919Z,-1.39
2017-11-30T06:54:52.929Z,-1.33
2017-11-30T06:56:02.953Z,-1.35
2017-11-30T06:57:13.100Z,-1.35
2017-11-30T06:58:23.109Z,-1.32
2017-11-30T06:59:33.157Z,-1.33
2017-11-30T07:00:43.178Z,-1.21
2017-11-30T07:01:52.665Z,-1.19
2017-11-30T07:03:02.397Z,-1.18
2017-11-30T07:04:12.405Z,-1.21
2017-11-30T07:05:22.413Z,-1.19
2017-11-30T07:06:32.428Z,-1.14
2017-11-30T07:07:42.433Z,-1.17
2017-11-30T07:08:52.168Z,-1.09
2017-11-30T07:10:01.906Z,-1.12
2017-11-30T07:11:11.653Z,-1.04
2017-11-30T07:12:21.659Z,-1.01
2017-11-30T07:13:31.671Z,-0.99
2017-11-30T07:14:41.670Z,-0.96
2017-11-30T07:15:51.684Z,-0.84
2017-11-30T07:17:01.699Z,-0.93
2017-11-30T07:18:11.707Z,-0.87
2017-11-30T07:19:21.446Z,-0.84
2017-11-30T07:20:31.497Z,-0.84
2017-11-30T07:21:41.501Z,-0.85
2017-11-30T07:22:51.506Z,-1.03
2017-11-30T07:24:01.515Z,-0.94
2017-11-30T07:25:11.523Z,-1.01
2017-11-30T07:26:21.532Z,-1.04
2017-11-30T07:27:31.536Z,-1.06
2017-11-30T07:28:41.559Z,-1.11
2017-11-30T07:29:51.564Z,-1.07
2017-11-30T07:31:01.307Z,-1.15
2017-11-30T07:32:11.316Z,-1.15
2017-11-30T07:33:21.053Z,-1.27
2017-11-30T07:34:31.077Z,-1.27
2017-11-30T07:35:41.110Z,-1.27
2017-11-30T07:36:51.142Z,-1.25
2017-11-30T07:38:01.144Z,-1.25
2017-11-30T07:39:10.875Z,-1.24
2017-11-30T07:40:20.876Z,-1.21
2017-11-30T07:41:30.904Z,-1.18
2017-11-30T07:42:40.639Z,-1.21
2017-11-30T07:43:50.645Z,-1.12
2017-11-30T07:45:00.688Z,-1.06
2017-11-30T07:46:10.457Z,-1
2017-11-30T07:47:21.125Z,-1.01
2017-11-30T07:48:33.057Z,-0.8
2017-11-30T07:49:43.223Z,-0.84
2017-11-30T07:50:53.851Z,-0.85
2017-11-30T07:52:04.628Z,-0.72
2017-11-30T07:53:15.242Z,-0.74
2017-11-30T07:54:27.125Z,-0.69
2017-11-30T07:55:37.068Z,-0.74
2017-11-30T07:56:48.411Z,-0.66
2017-11-30T07:58:00.081Z,-0.7
2017-11-30T07:59:12.574Z,-0.66
2017-11-30T08:00:22.598Z,-0.6
2017-11-30T08:01:32.608Z,-0.67
2017-11-30T08:02:42.875Z,-0.57
2017-11-30T08:03:53.501Z,-0.56
2017-11-30T08:05:03.861Z,-0.56
2017-11-30T08:06:13.694Z,-0.57
2017-11-30T08:07:23.845Z,-0.51
2017-11-30T08:08:34.615Z,-0.54
2017-11-30T08:09:45.900Z,-0.53
2017-11-30T08:10:56.342Z,-0.54
2017-11-30T08:12:07.303Z,-0.53
2017-11-30T08:13:17.953Z,-0.63
2017-11-30T08:14:27.981Z,-0.53
2017-11-30T08:15:38.180Z,-0.54
2017-11-30T08:16:49.730Z,-0.54
2017-11-30T08:18:00.385Z,-0.53
2017-11-30T08:19:11.670Z,-0.49
2017-11-30T08:20:22.328Z,-0.51
2017-11-30T08:21:32.943Z,-0.44
2017-11-30T08:22:44.217Z,-0.49
2017-11-30T08:23:55.745Z,-0.46
2017-11-30T08:25:08.364Z,-0.53
2017-11-30T08:26:21.676Z,-0.49
2017-11-30T08:27:33.167Z,-0.46
2017-11-30T08:28:43.782Z,-0.48
2017-11-30T08:29:53.871Z,-0.41
2017-11-30T08:31:04.543Z,-0.48
2017-11-30T08:32:17.191Z,-0.41
2017-11-30T08:33:27.922Z,-0.38
2017-11-30T08:34:37.936Z,-0.44
2017-11-30T08:35:49.254Z,-0.42
2017-11-30T08:37:00.538Z,-0.45
2017-11-30T08:38:12.894Z,-0.45
2017-11-30T08:39:23.673Z,-0.41
2017-11-30T08:40:33.710Z,-0.41
2017-11-30T08:41:44.393Z,-0.36
2017-11-30T08:42:55.392Z,-0.45
2017-11-30T08:44:05.797Z,-0.42
2017-11-30T08:45:16.842Z,-0.41
2017-11-30T08:46:27.209Z,-0.42
2017-11-30T08:47:37.773Z,-0.33
2017-11-30T08:48:49.090Z,-0.38
2017-11-30T08:50:03.470Z,-0.27
2017-11-30T08:51:14.659Z,-0.28
2017-11-30T08:52:26.581Z,-0.35
2017-11-30T08:53:38.485Z,-0.33
2017-11-30T08:54:49.113Z,-0.54
2017-11-30T08:56:01.161Z,-0.6
2017-11-30T08:57:12.517Z,-0.64
2017-11-30T08:58:23.939Z,-0.82
2017-11-30T08:59:35.254Z,-0.85
2017-11-30T09:00:46.250Z,-0.84
2017-11-30T09:01:56.788Z,-0.99
2017-11-30T09:03:07.788Z,-1.07
2017-11-30T09:04:18.191Z,-1.07
2017-11-30T09:05:29.420Z,-1.18
2017-11-30T09:06:41.141Z,-1.22
2017-11-30T09:07:51.216Z,-1.21
2017-11-30T09:09:00.985Z,-1.3
2017-11-30T09:10:11.016Z,-1.33
2017-11-30T09:11:21.022Z,-1.21
2017-11-30T09:12:30.766Z,-1.17
2017-11-30T09:13:40.771Z,-1.3
2017-11-30T09:14:50.795Z,-1.21
2017-11-30T09:16:00.836Z,-1.22
2017-11-30T09:17:10.855Z,-1.18
2017-11-30T09:18:20.866Z,-1.17
2017-11-30T09:19:30.607Z,-1.17
2017-11-30T09:20:40.635Z,-1.19
2017-11-30T09:21:50.388Z,-1.3
2017-11-30T09:22:59.853Z,-1.18
2017-11-30T09:24:09.879Z,-1.29
2017-11-30T09:25:19.893Z,-1.29
2017-11-30T09:26:29.905Z,-1.32
2017-11-30T09:27:39.641Z,-1.18
2017-11-30T09:28:49.379Z,-1.21
2017-11-30T09:29:59.399Z,-1.18
2017-11-30T09:31:09.439Z,-1.19
2017-11-30T09:32:19.450Z,-1.21
2017-11-30T09:33:29.465Z,-1.21
2017-11-30T09:34:39.479Z,-1.29
2017-11-30T09:35:48.947Z,-1.35
2017-11-30T09:37:03.388Z,-1.22
2017-11-30T09:38:12.852Z,-1.17
2017-11-30T09:39:22.854Z,-1.19
2017-11-30T09:40:32.873Z,-1.21
2017-11-30T09:41:42.913Z,-1.19
2017-11-30T09:42:55.224Z,-1.18
2017-11-30T09:44:05.231Z,-1.14
2017-11-30T09:45:14.696Z,-1.11
2017-11-30T09:46:24.717Z,-1.09
2017-11-30T09:47:34.740Z,-1.01
2017-11-30T09:48:44.747Z,-1.06
2017-11-30T09:49:54.499Z,-1.06
2017-11-30T09:51:04.510Z,-0.99
2017-11-30T09:52:14.514Z,-1.01
2017-11-30T09:53:24.515Z,-0.96
2017-11-30T09:54:34.539Z,-0.94
2017-11-30T09:55:44.569Z,-0.99
2017-11-30T09:56:54.317Z,-0.99
2017-11-30T09:58:04.337Z,-1.01
2017-11-30T09:59:14.346Z,-0.87
2017-11-30T10:00:24.083Z,-0.82
2017-11-30T10:01:33.564Z,-0.81
2017-11-30T10:02:43.569Z,-0.72
2017-11-30T10:03:53.047Z,-0.69
2017-11-30T10:05:03.060Z,-0.75
2017-11-30T10:06:13.076Z,-0.69
2017-11-30T10:07:23.087Z,-0.74
2017-11-30T10:08:33.091Z,-0.69
2017-11-30T10:09:42.823Z,-0.74
2017-11-30T10:10:52.565Z,-0.6
2017-11-30T10:12:02.722Z,-0.62
2017-11-30T10:13:12.475Z,-0.53
2017-11-30T10:14:21.953Z,-0.54
2017-11-30T10:15:31.957Z,-0.49
2017-11-30T10:16:41.971Z,-0.45
2017-11-30T10:17:51.981Z,-0.39
2017-11-30T10:19:01.995Z,-0.24
2017-11-30T10:20:12.016Z,-0.17
2017-11-30T10:21:21.748Z,-0.1
2017-11-30T10:22:31.759Z,-0.06
2017-11-30T10:23:41.777Z,-0.07
2017-11-30T10:24:51.524Z,-0.02
2017-11-30T10:26:01.265Z,-0.06
2017-11-30T10:27:11.267Z,0.01
2017-11-30T10:28:21.004Z,0.01
2017-11-30T10:29:30.204Z,0.09
2017-11-30T10:30:40.213Z,-0.02
2017-11-30T10:31:49.946Z,0
2017-11-30T10:32:59.963Z,0.09
2017-11-30T10:34:09.974Z,0.05
2017-11-30T10:35:19.713Z,0.06
2017-11-30T10:36:29.526Z,0.02
2017-11-30T10:37:39.543Z,0.15
2017-11-30T10:38:49.561Z,0.18
2017-11-30T10:39:59.298Z,0.11
2017-11-30T10:41:09.638Z,0.18
2017-11-30T10:42:19.654Z,0.08
2017-11-30T10:43:29.667Z,0.11
2017-11-30T10:44:39.402Z,0.09
2017-11-30T10:45:49.426Z,0.18
2017-11-30T10:46:59.200Z,0.18
2017-11-30T10:48:08.944Z,0.15
2017-11-30T10:49:18.951Z,0.19
2017-11-30T10:50:28.707Z,0.15
2017-11-30T10:51:38.439Z,0.24
2017-11-30T10:52:48.622Z,0.29
2017-11-30T10:53:58.636Z,0.33
2017-11-30T10:55:08.659Z,0.34
2017-11-30T10:56:18.669Z,0.33
2017-11-30T10:57:28.669Z,0.37
2017-11-30T10:58:38.410Z,0.39
2017-11-30T10:59:48.416Z,0.34
2017-11-30T11:00:58.168Z,0.42
2017-11-30T11:02:08.179Z,0.39
2017-11-30T11:03:18.189Z,0.48
2017-11-30T11:04:27.925Z,0.49
2017-11-30T11:05:37.675Z,0.47
2017-11-30T11:06:47.689Z,0.52
2017-11-30T11:07:57.711Z,0.64
2017-11-30T11:09:07.716Z,0.55
2017-11-30T11:10:17.722Z,0.66
2017-11-30T11:11:27.769Z,0.7
2017-11-30T11:12:37.519Z,0.76
2017-11-30T11:13:47.530Z,0.74
2017-11-30T11:14:57.545Z,0.81
2017-11-30T11:16:07.555Z,0.78
2017-11-30T11:17:17.568Z,0.78
2017-11-30T11:18:27.571Z,0.85
2017-11-30T11:19:37.586Z,0.91
2017-11-30T11:20:47.593Z,0.96
2017-11-30T11:21:57.669Z,1
2017-11-30T11:23:07.415Z,1.09
2017-11-30T11:24:17.424Z,1.04
2017-11-30T11:25:28.557Z,1.1
2017-11-30T11:26:38.300Z,1.18
2017-11-30T11:27:49.908Z,1.18
2017-11-30T11:28:59.393Z,1.12
2017-11-30T11:30:09.133Z,1.09
2017-11-30T11:31:19.137Z,1.02
2017-11-30T11:32:29.153Z,0.71
2017-11-30T11:33:39.123Z,0.51
2017-11-30T11:34:49.152Z,0.33
2017-11-30T11:35:59.170Z,0.13
2017-11-30T11:37:09.197Z,0.12
2017-11-30T11:38:19.210Z,0.06
2017-11-30T11:39:29.264Z,0.15
2017-11-30T11:40:39.266Z,0.05
2017-11-30T11:41:49.279Z,0.01
2017-11-30T11:42:59.287Z,-0.05
2017-11-30T11:44:09.036Z,0.06
2017-11-30T11:45:19.052Z,0.09
2017-11-30T11:46:28.785Z,0.16
2017-11-30T11:47:38.520Z,0.31
2017-11-30T11:48:48.258Z,0.24
2017-11-30T11:49:58.006Z,0.11
2017-11-30T11:51:08.096Z,0.05
2017-11-30T11:52:17.829Z,0.06
2017-11-30T11:53:27.835Z,0.15
2017-11-30T11:54:37.858Z,0.09
2017-11-30T11:55:47.327Z,0.13
2017-11-30T11:56:57.340Z,0.23
2017-11-30T11:58:07.349Z,0.39
2017-11-30T11:59:17.354Z,0.37
2017-11-30T12:00:27.369Z,0.47
2017-11-30T12:01:37.375Z,0.34
2017-11-30T12:02:47.380Z,0.11
2017-11-30T12:03:57.399Z,0.06
2017-11-30T12:05:07.140Z,0.01
2017-11-30T12:06:17.151Z,0
2017-11-30T12:07:27.164Z,0.05
2017-11-30T12:08:37.175Z,0.12
2017-11-30T12:09:46.645Z,0.13
2017-11-30T12:10:56.475Z,0.09
2017-11-30T12:12:06.486Z,0.09
2017-11-30T12:13:15.967Z,0.23
2017-11-30T12:14:26.008Z,0.11
2017-11-30T12:15:36.050Z,0.05
2017-11-30T12:16:46.052Z,-0.05
2017-11-30T12:17:55.519Z,0.02
2017-11-30T12:19:05.535Z,0.12
2017-11-30T12:20:15.299Z,0.06
2017-11-30T12:21:25.313Z,0.23
2017-11-30T12:22:35.323Z,0.19
2017-11-30T12:23:45.081Z,0.06
2017-11-30T12:24:55.100Z,0.01
2017-11-30T12:26:04.851Z,-0.02
2017-11-30T12:27:14.883Z,-0.12
2017-11-30T12:28:24.894Z,-0.1
2017-11-30T12:29:34.903Z,-0.18
2017-11-30T12:30:44.926Z,-0.1
2017-11-30T12:31:54.677Z,-0.12
2017-11-30T12:33:04.414Z,-0.13
2017-11-30T12:34:14.160Z,-0.21
2017-11-30T12:35:23.894Z,-0.15
2017-11-30T12:36:33.904Z,-0.12
2017-11-30T12:37:43.918Z,-0.09
2017-11-30T12:38:53.930Z,-0.15
2017-11-30T12:40:03.955Z,-0.2
2017-11-30T12:41:13.973Z,-0.31
2017-11-30T12:42:23.997Z,-0.35
2017-11-30T12:43:34.067Z,-0.35
2017-11-30T12:44:43.786Z,-0.31
2017-11-30T12:45:53.556Z,-0.3
2017-11-30T12:47:03.575Z,-0.28
2017-11-30T12:48:13.602Z,-0.31
2017-11-30T12:49:23.633Z,-0.38
2017-11-30T12:50:33.640Z,-0.33
2017-11-30T12:51:43.674Z,-0.31
2017-11-30T12:52:53.413Z,-0.3
2017-11-30T12:54:03.174Z,-0.26
2017-11-30T12:55:13.224Z,-0.2
2017-11-30T12:56:23.231Z,-0.18
2017-11-30T12:57:33.243Z,-0.31
2017-11-30T12:58:43.222Z,-0.23
2017-11-30T12:59:53.215Z,-0.18
2017-11-30T13:01:03.326Z,-0.28
2017-11-30T13:02:13.042Z,-0.36
2017-11-30T13:03:23.026Z,-0.31
2017-11-30T13:04:33.011Z,-0.39
2017-11-30T13:05:42.728Z,-0.44
2017-11-30T13:06:52.709Z,-0.39
2017-11-30T13:08:02.688Z,-0.38
2017-11-30T13:09:12.672Z,-0.42
2017-11-30T13:10:22.658Z,-0.38
2017-11-30T13:11:32.638Z,-0.28
2017-11-30T13:12:41.825Z,-0.23
2017-11-30T13:13:51.544Z,-0.21
2017-11-30T13:15:01.259Z,-0.1
2017-11-30T13:16:11.242Z,-0.06
2017-11-30T13:17:21.227Z,-0.03
2017-11-30T13:18:31.206Z,0.06
2017-11-30T13:19:41.190Z,0.01
2017-11-30T13:20:51.190Z,0.08
2017-11-30T13:22:01.211Z,0.12
2017-11-30T13:23:10.929Z,0.27
2017-11-30T13:24:20.912Z,0.3
2017-11-30T13:25:30.895Z,0.33
2017-11-30T13:26:40.888Z,0.39
2017-11-30T13:27:50.870Z,0.39
2017-11-30T13:29:00.590Z,0.37
2017-11-30T13:30:10.586Z,0.37
2017-11-30T13:31:20.632Z,0.34
2017-11-30T13:32:30.087Z,0.34
2017-11-30T13:33:40.080Z,0.42
2017-11-30T13:34:49.539Z,0.37
2017-11-30T13:35:59.527Z,0.4
2017-11-30T13:37:09.241Z,0.42
2017-11-30T13:38:19.223Z,0.4
2017-11-30T13:39:29.219Z,0.33
2017-11-30T13:40:39.232Z,0.36
2017-11-30T13:41:49.229Z,0.39
2017-11-30T13:42:58.947Z,0.31
2017-11-30T13:44:08.948Z,0.44
2017-11-30T13:45:18.936Z,0.55
2017-11-30T13:46:28.390Z,0.49
2017-11-30T13:47:38.377Z,0.52
2017-11-30T13:48:48.367Z,0.33
2017-11-30T13:49:57.822Z,0.33
2017-11-30T13:51:07.817Z,0.36
2017-11-30T13:52:17.816Z,0.42
2017-11-30T13:53:27.807Z,0.45
2017-11-30T13:54:37.789Z,0.47
2017-11-30T13:55:47.777Z,0.31
2017-11-30T13:56:57.231Z,0.44
2017-11-30T13:58:06.954Z,0.45
2017-11-30T13:59:16.939Z,0.3
2017-11-30T14:00:26.659Z,0.4
2017-11-30T14:01:36.641Z,0.42
2017-11-30T14:02:46.628Z,0.4
2017-11-30T14:03:56.614Z,0.34
2017-11-30T14:05:06.075Z,0.36
2017-11-30T14:06:16.083Z,0.29
2017-11-30T14:07:26.065Z,0.19
2017-11-30T14:08:36.045Z,0.18
2017-11-30T14:09:46.044Z,0.15
2017-11-30T14:10:55.770Z,0.08
2017-11-30T14:12:04.973Z,0.01
2017-11-30T14:13:14.689Z,-0.06
2017-11-30T14:14:24.670Z,-0.03
2017-11-30T14:15:34.665Z,0.02
2017-11-30T14:16:44.394Z,-0.05
2017-11-30T14:17:54.438Z,0
2017-11-30T14:19:04.419Z,-0.09
2017-11-30T14:20:14.411Z,-0.1
2017-11-30T14:21:24.397Z,-0.13
2017-11-30T14:22:34.117Z,-0.13
2017-11-30T14:23:44.098Z,-0.1
2017-11-30T14:24:54.085Z,-0.18
2017-11-30T14:26:03.865Z,-0.23
2017-11-30T14:27:13.842Z,-0.3
2017-11-30T14:28:23.561Z,-0.3
2017-11-30T14:29:33.542Z,-0.33
2017-11-30T14:30:43.526Z,-0.33
2017-11-30T14:31:53.243Z,-0.35
2017-11-30T14:33:02.959Z,-0.38
2017-11-30T14:34:16.008Z,-0.39
2017-11-30T14:35:25.755Z,-0.26
2017-11-30T14:36:36.487Z,-0.3
2017-11-30T14:37:45.941Z,-0.28
2017-11-30T14:38:55.664Z,-0.33
2017-11-30T14:40:05.120Z,-0.13
2017-11-30T14:41:15.157Z,-0.3
2017-11-30T14:42:24.884Z,-0.33
2017-11-30T14:43:34.599Z,-0.17
2017-11-30T14:44:44.644Z,-0.3
2017-11-30T14:45:54.686Z,-0.26
2017-11-30T14:47:04.410Z,-0.31
2017-11-30T14:48:13.872Z,-0.27
2017-11-30T14:49:23.854Z,-0.28
2017-11-30T14:50:33.838Z,-0.28
2017-11-30T14:51:43.557Z,-0.17
2017-11-30T14:52:53.547Z,-0.21
2017-11-30T14:54:03.262Z,-0.18
2017-11-30T14:55:12.978Z,-0.18
2017-11-30T14:56:22.701Z,-0.06
2017-11-30T14:57:32.678Z,-0.06
2017-11-30T14:58:42.658Z,-0.09
2017-11-30T14:59:52.378Z,-0.1
2017-11-30T15:01:02.358Z,-0.09
2017-11-30T15:02:12.342Z,-0.06
2017-11-30T15:03:22.334Z,-0.05
2017-11-30T15:04:32.379Z,-0.05
2017-11-30T15:05:42.099Z,-0.17
2017-11-30T15:06:52.077Z,-0.1
2017-11-30T15:08:01.533Z,-0.15
2017-11-30T15:09:11.514Z,-0.2
2017-11-30T15:10:21.232Z,-0.2
2017-11-30T15:11:30.950Z,-0.18
2017-11-30T15:12:40.995Z,-0.23
2017-11-30T15:13:50.450Z,-0.18